createdAt,value
2017-12-03T00:02:18.221Z,35.63
2017-12-03T00:04:47.286Z,38.17
2017-12-03T00:07:15.598Z,37.43
2017-12-03T00:09:45.389Z,37.30
2017-12-03T00:12:14.590Z,36.80
2017-12-03T00:14:43.714Z,39.37
2017-12-03T00:17:12.960Z,34.87
2017-12-03T00:19:41.268Z,38.60
2017-12-03T00:22:09.659Z,35.07
2017-12-03T00:24:38.745Z,37.93
2017-12-03T00:27:07.068Z,37.53
2017-12-03T00:29:35.366Z,36.80
2017-12-03T00:32:03.676Z,34.77
2017-12-03T00:34:32.070Z,36.97
2017-12-03T00:37:01.155Z,37.90
2017-12-03T00:39:29.484Z,35.97
2017-12-03T00:41:57.805Z,35.77
2017-12-03T00:44:26.132Z,35.93
2017-12-03T00:46:55.218Z,38.90
2017-12-03T00:49:23.552Z,35.80
2017-12-03T00:51:51.861Z,39.53
2017-12-03T00:54:20.169Z,35.50
2017-12-03T00:56:49.235Z,35.50
2017-12-03T00:59:17.578Z,34.10
2017-12-03T01:01:45.900Z,34.67
2017-12-03T01:04:14.220Z,34.70
2017-12-03T01:06:43.300Z,34.27
2017-12-03T01:09:12.383Z,39.40
2017-12-03T01:11:40.698Z,36.80
2017-12-03T01:14:09.833Z,37.10
2017-12-03T01:16:38.136Z,38.30
2017-12-03T01:19:06.468Z,37.93
2017-12-03T01:21:34.794Z,40.83
2017-12-03T01:24:03.902Z,37.90
2017-12-03T01:26:32.233Z,39.83
2017-12-03T01:29:01.153Z,36.33
2017-12-03T01:31:29.464Z,38.13
2017-12-03T01:33:58.568Z,38.70
2017-12-03T01:36:27.653Z,35.13
2017-12-03T01:38:55.948Z,35.10
2017-12-03T01:41:24.268Z,37.50
2017-12-03T01:43:52.589Z,29.77
2017-12-03T01:46:20.944Z,37.60
2017-12-03T01:48:49.259Z,34.87
2017-12-03T01:51:17.585Z,36.67
2017-12-03T01:53:45.978Z,42.57
2017-12-03T01:56:14.285Z,38.07
2017-12-03T01:58:42.597Z,39.40
2017-12-03T02:01:10.928Z,42.07
2017-12-03T02:03:39.356Z,40.00
2017-12-03T02:06:07.836Z,41.03
2017-12-03T02:08:36.180Z,35.10
2017-12-03T02:11:06.041Z,41.07
2017-12-03T02:13:34.350Z,43.00
2017-12-03T02:16:02.662Z,39.60
2017-12-03T02:18:30.976Z,41.07
2017-12-03T02:21:00.046Z,41.10
2017-12-03T02:23:28.362Z,39.73
2017-12-03T02:25:56.708Z,42.37
2017-12-03T02:28:25.042Z,38.20
2017-12-03T02:30:54.111Z,36.50
2017-12-03T02:33:22.438Z,35.97
2017-12-03T02:35:50.769Z,38.77
2017-12-03T02:38:19.105Z,33.07
2017-12-03T02:40:47.408Z,38.80
2017-12-03T02:43:15.720Z,38.93
2017-12-03T02:45:44.815Z,40.27
2017-12-03T02:48:13.187Z,31.90
2017-12-03T02:50:41.492Z,37.77
2017-12-03T02:53:10.580Z,37.90
2017-12-03T02:55:38.901Z,39.50
2017-12-03T02:58:07.232Z,38.67
2017-12-03T03:00:35.614Z,36.40
2017-12-03T03:03:04.200Z,37.63
2017-12-03T03:05:32.514Z,36.20
2017-12-03T03:08:00.836Z,36.90
2017-12-03T03:10:29.166Z,37.63
2017-12-03T03:12:58.336Z,39.43
2017-12-03T03:15:26.650Z,40.20
2017-12-03T03:17:55.786Z,36.50
2017-12-03T03:20:24.872Z,37.87
2017-12-03T03:22:53.186Z,32.07
2017-12-03T03:25:21.520Z,38.07
2017-12-03T03:27:49.840Z,39.57
2017-12-03T03:30:18.155Z,35.33
2017-12-03T03:32:47.337Z,39.27
2017-12-03T03:35:15.656Z,36.10
2017-12-03T03:37:44.737Z,38.60
2017-12-03T03:40:13.056Z,38.03
2017-12-03T03:42:41.362Z,37.07
2017-12-03T03:45:09.678Z,37.17
2017-12-03T03:47:38.029Z,37.37
2017-12-03T03:50:06.346Z,36.30
2017-12-03T03:52:35.562Z,36.67
2017-12-03T03:55:03.873Z,33.10
2017-12-03T03:57:32.190Z,34.40
2017-12-03T04:00:00.492Z,35.30
2017-12-03T04:02:29.735Z,38.87
2017-12-03T04:04:58.062Z,38.13
2017-12-03T04:07:26.384Z,37.70
2017-12-03T04:09:54.700Z,32.93
2017-12-03T04:12:23.054Z,36.80
2017-12-03T04:14:51.376Z,35.80
2017-12-03T04:17:19.674Z,36.07
2017-12-03T04:19:47.984Z,37.77
2017-12-03T04:22:16.311Z,36.07
2017-12-03T04:24:44.667Z,36.87
2017-12-03T04:27:12.972Z,31.13
2017-12-03T04:29:41.292Z,36.70
2017-12-03T04:32:10.369Z,36.57
2017-12-03T04:34:38.687Z,35.17
2017-12-03T04:37:07.018Z,35.10
2017-12-03T04:39:35.454Z,31.47
2017-12-03T04:42:03.786Z,32.60
2017-12-03T04:44:32.096Z,36.70
2017-12-03T04:47:00.409Z,34.77
2017-12-03T04:49:28.729Z,34.90
2017-12-03T04:51:57.825Z,34.50
2017-12-03T04:54:27.647Z,33.73
2017-12-03T04:56:55.963Z,31.40
2017-12-03T04:59:24.301Z,34.10
2017-12-03T05:01:52.709Z,35.30
2017-12-03T05:04:21.802Z,31.33
2017-12-03T05:06:50.875Z,32.70
2017-12-03T05:09:19.419Z,33.73
2017-12-03T05:11:47.742Z,34.77
2017-12-03T05:14:16.051Z,34.73
2017-12-03T05:16:45.138Z,32.00
2017-12-03T05:19:13.458Z,31.67
2017-12-03T05:21:41.889Z,35.20
2017-12-03T05:24:10.209Z,32.47
2017-12-03T05:26:38.537Z,36.80
2017-12-03T05:29:06.856Z,33.53
2017-12-03T05:31:35.932Z,35.23
2017-12-03T05:34:05.019Z,32.57
2017-12-03T05:36:33.339Z,34.40
2017-12-03T05:39:02.430Z,33.47
2017-12-03T05:41:31.508Z,33.80
2017-12-03T05:43:59.808Z,35.90
2017-12-03T05:46:28.147Z,35.37
2017-12-03T05:48:56.445Z,34.70
2017-12-03T05:51:24.764Z,35.10
2017-12-03T05:53:53.086Z,35.07
2017-12-03T05:56:21.383Z,31.93
2017-12-03T05:58:49.678Z,30.60
2017-12-03T06:01:18.083Z,34.20
2017-12-03T06:03:47.228Z,33.47
2017-12-03T06:06:15.540Z,31.67
2017-12-03T06:08:44.040Z,34.43
2017-12-03T06:11:13.265Z,31.87
2017-12-03T06:13:41.566Z,31.67
2017-12-03T06:16:09.867Z,32.97
2017-12-03T06:18:38.177Z,32.33
2017-12-03T06:21:07.267Z,33.17
2017-12-03T06:23:35.587Z,31.60
2017-12-03T06:26:03.893Z,34.40
2017-12-03T06:28:32.211Z,36.50
2017-12-03T06:31:00.535Z,36.30
2017-12-03T06:33:28.841Z,32.67
2017-12-03T06:35:57.152Z,35.70
2017-12-03T06:38:26.243Z,37.20
2017-12-03T06:40:54.552Z,32.77
2017-12-03T06:43:23.619Z,36.50
2017-12-03T06:45:53.440Z,35.20
2017-12-03T06:48:22.521Z,29.40
2017-12-03T06:50:50.835Z,34.17
2017-12-03T06:53:19.908Z,29.13
2017-12-03T06:55:48.215Z,31.00
2017-12-03T06:58:19.147Z,31.93
2017-12-03T07:00:48.233Z,28.53
2017-12-03T07:03:16.557Z,33.80
2017-12-03T07:05:44.910Z,30.83
2017-12-03T07:08:13.993Z,34.87
2017-12-03T07:10:43.860Z,33.70
2017-12-03T07:13:12.178Z,29.87
2017-12-03T07:15:40.523Z,30.60
2017-12-03T07:18:08.848Z,33.87
2017-12-03T07:20:37.924Z,32.10
2017-12-03T07:23:06.394Z,32.70
2017-12-03T07:25:34.685Z,32.20
2017-12-03T07:28:03.009Z,31.50
2017-12-03T07:30:32.093Z,29.23
2017-12-03T07:33:00.415Z,27.83
2017-12-03T07:35:28.756Z,33.03
2017-12-03T07:37:57.079Z,31.20
2017-12-03T07:40:25.383Z,31.23
2017-12-03T07:42:53.708Z,28.83
2017-12-03T07:45:22.129Z,28.63
2017-12-03T07:47:50.513Z,26.50
2017-12-03T07:50:18.813Z,28.07
2017-12-03T07:52:47.111Z,29.00
2017-12-03T07:55:15.419Z,27.00
2017-12-03T07:57:44.499Z,28.20
2017-12-03T08:00:14.322Z,26.40
2017-12-03T08:02:42.707Z,27.63
2017-12-03T08:05:11.781Z,28.40
2017-12-03T08:07:40.120Z,31.00
2017-12-03T08:10:08.463Z,29.03
2017-12-03T08:12:36.793Z,28.00
2017-12-03T08:15:05.103Z,27.60
2017-12-03T08:17:33.439Z,28.97
2017-12-03T08:20:01.745Z,26.53
2017-12-03T08:22:30.062Z,25.20
2017-12-03T08:24:58.413Z,31.47
2017-12-03T08:27:26.733Z,28.40
2017-12-03T08:29:55.049Z,29.50
2017-12-03T08:32:23.343Z,31.37
2017-12-03T08:34:52.486Z,29.83
2017-12-03T08:37:21.133Z,31.10
2017-12-03T08:39:49.445Z,29.57
2017-12-03T08:42:17.808Z,29.70
2017-12-03T08:44:46.219Z,31.17
2017-12-03T08:47:15.261Z,31.10
2017-12-03T08:49:44.543Z,31.07
2017-12-03T08:52:13.647Z,29.43
2017-12-03T08:54:46.903Z,28.03
2017-12-03T08:57:16.095Z,28.30
2017-12-03T08:59:44.409Z,25.03
2017-12-03T09:02:13.537Z,26.07
2017-12-03T09:04:41.861Z,29.60
2017-12-03T09:07:10.180Z,27.63
2017-12-03T09:09:39.261Z,26.33
2017-12-03T09:12:07.645Z,28.43
2017-12-03T09:14:36.804Z,30.67
2017-12-03T09:17:05.119Z,30.30
2017-12-03T09:19:33.429Z,34.20
2017-12-03T09:22:01.741Z,31.70
2017-12-03T09:24:30.044Z,31.30
2017-12-03T09:26:58.353Z,29.73
2017-12-03T09:29:27.417Z,27.47
2017-12-03T09:31:55.750Z,30.87
2017-12-03T09:34:24.073Z,28.00
2017-12-03T09:36:52.369Z,29.70
2017-12-03T09:39:20.709Z,30.60
2017-12-03T09:41:49.015Z,29.40
2017-12-03T09:44:17.385Z,31.37
2017-12-03T09:46:45.743Z,25.83
2017-12-03T09:49:14.094Z,24.33
2017-12-03T09:51:42.395Z,27.63
2017-12-03T09:54:10.718Z,29.00
2017-12-03T09:56:39.039Z,32.67
2017-12-03T09:59:08.455Z,31.40
2017-12-03T10:01:37.535Z,27.80
2017-12-03T10:04:05.843Z,30.30
2017-12-03T10:06:34.232Z,29.20
2017-12-03T10:09:02.531Z,33.00
2017-12-03T10:11:30.843Z,31.07
2017-12-03T10:13:59.149Z,33.20
2017-12-03T10:16:27.519Z,30.63
2017-12-03T10:18:55.868Z,31.20
2017-12-03T10:21:25.725Z,32.23
2017-12-03T10:23:54.033Z,34.23
2017-12-03T10:26:22.360Z,30.87
2017-12-03T10:28:50.773Z,32.87
2017-12-03T10:31:20.597Z,32.90
2017-12-03T10:33:48.930Z,32.67
2017-12-03T10:36:17.245Z,32.37
2017-12-03T10:38:46.381Z,31.00
2017-12-03T10:41:15.487Z,34.43
2017-12-03T10:43:43.805Z,35.00
2017-12-03T10:46:12.115Z,29.77
2017-12-03T10:48:41.217Z,31.70
2017-12-03T10:51:10.322Z,31.60
2017-12-03T10:53:38.666Z,33.77
2017-12-03T10:56:06.989Z,35.93
2017-12-03T10:58:36.479Z,34.83
2017-12-03T11:01:05.087Z,35.30
2017-12-03T11:03:34.239Z,35.90
2017-12-03T11:06:03.075Z,37.70
2017-12-03T11:08:31.932Z,36.07
2017-12-03T11:11:01.701Z,38.67
2017-12-03T11:13:30.729Z,37.30
2017-12-03T11:15:59.155Z,29.53
2017-12-03T11:18:28.372Z,30.33
2017-12-03T11:20:56.730Z,29.07
2017-12-03T11:23:25.025Z,29.83
2017-12-03T11:25:53.412Z,29.13
2017-12-03T11:28:21.765Z,28.20
2017-12-03T11:30:50.957Z,29.17
2017-12-03T11:33:21.646Z,27.10
2017-12-03T11:35:51.044Z,30.70
2017-12-03T11:38:19.380Z,30.00
2017-12-03T11:40:49.205Z,29.03
2017-12-03T11:43:17.565Z,29.40
2017-12-03T11:45:45.912Z,29.63
2017-12-03T11:48:14.232Z,29.10
2017-12-03T11:50:43.306Z,31.57
2017-12-03T11:53:11.611Z,33.50
2017-12-03T11:55:40.694Z,32.57
2017-12-03T11:58:09.011Z,30.70
2017-12-03T12:00:38.150Z,29.33
2017-12-03T12:03:06.849Z,30.27
2017-12-03T12:05:35.170Z,32.10
2017-12-03T12:08:04.244Z,31.50
2017-12-03T12:10:33.321Z,30.60
2017-12-03T12:13:01.755Z,32.70
2017-12-03T12:15:30.114Z,33.40
2017-12-03T12:17:58.449Z,30.53
2017-12-03T12:20:27.082Z,32.27
2017-12-03T12:22:55.434Z,33.17
2017-12-03T12:25:23.757Z,30.30
2017-12-03T12:27:52.888Z,33.80
2017-12-03T12:30:21.996Z,29.83
2017-12-03T12:32:51.064Z,31.40
2017-12-03T12:35:19.430Z,28.57
2017-12-03T12:37:47.760Z,30.13
2017-12-03T12:40:16.108Z,31.00
2017-12-03T12:42:45.237Z,29.20
2017-12-03T12:45:13.588Z,27.67
2017-12-03T12:47:42.048Z,28.70
2017-12-03T12:50:10.352Z,30.17
2017-12-03T12:52:38.717Z,28.33
2017-12-03T12:55:07.049Z,30.70
2017-12-03T12:57:35.372Z,30.43
2017-12-03T13:00:03.702Z,30.90
2017-12-03T13:02:32.202Z,31.80
2017-12-03T13:05:00.523Z,34.47
2017-12-03T13:07:28.942Z,33.80
2017-12-03T13:09:58.056Z,30.30
2017-12-03T13:12:26.410Z,33.57
2017-12-03T13:14:54.763Z,33.07
2017-12-03T13:17:23.084Z,32.07
2017-12-03T13:19:51.404Z,31.30
2017-12-03T13:22:19.723Z,33.10
2017-12-03T13:24:48.062Z,33.40
2017-12-03T13:27:16.361Z,32.10
2017-12-03T13:29:44.688Z,29.10
2017-12-03T13:32:13.014Z,27.57
2017-12-03T13:34:41.390Z,23.50
2017-12-03T13:37:09.828Z,22.13
2017-12-03T13:39:38.260Z,31.87
2017-12-03T13:42:06.588Z,24.77
2017-12-03T13:44:35.728Z,25.00
2017-12-03T13:47:04.078Z,15.03
2017-12-03T13:49:32.410Z,17.60
2017-12-03T13:52:00.760Z,8.03
2017-12-03T13:54:29.844Z,3.53
2017-12-03T13:56:58.161Z,3.10
2017-12-03T13:59:26.547Z,6.90
2017-12-03T14:01:55.580Z,5.07
2017-12-03T14:04:23.938Z,3.70
2017-12-03T14:06:52.246Z,2.70
2017-12-03T14:09:20.608Z,3.60
2017-12-03T14:11:48.922Z,2.77
2017-12-03T14:14:17.242Z,7.63
2017-12-03T14:16:45.603Z,3.33
2017-12-03T14:19:13.956Z,5.80
2017-12-03T14:21:42.262Z,1.63
2017-12-03T14:24:11.442Z,3.83
2017-12-03T14:26:39.832Z,3.80
2017-12-03T14:29:09.808Z,3.40
2017-12-03T14:31:38.718Z,1.70
2017-12-03T14:34:07.028Z,2.43
2017-12-03T14:36:35.395Z,1.97
2017-12-03T14:39:03.726Z,3.80
2017-12-03T14:41:32.079Z,6.53
2017-12-03T14:44:01.154Z,13.97
2017-12-03T14:46:29.487Z,12.40
2017-12-03T14:48:57.790Z,10.60
2017-12-03T14:51:26.112Z,12.03
2017-12-03T14:53:54.440Z,9.87
2017-12-03T14:56:22.767Z,19.80
2017-12-03T14:58:51.126Z,15.70
2017-12-03T15:01:19.427Z,11.87
2017-12-03T15:03:48.512Z,30.97
2017-12-03T15:06:16.827Z,14.67
2017-12-03T15:08:47.102Z,14.97
2017-12-03T15:11:15.418Z,36.00
2017-12-03T15:13:43.737Z,16.40
2017-12-03T15:16:12.068Z,8.40
2017-12-03T15:18:40.403Z,41.70
2017-12-03T15:21:08.720Z,17.23
2017-12-03T15:23:37.178Z,30.10
2017-12-03T15:26:05.494Z,7.60
2017-12-03T15:28:33.956Z,26.57
2017-12-03T15:31:02.278Z,17.97
2017-12-03T15:33:31.461Z,34.00
2017-12-03T15:35:59.778Z,14.47
2017-12-03T15:38:28.862Z,22.77
2017-12-03T15:40:57.952Z,2.97
2017-12-03T15:43:26.402Z,15.10
2017-12-03T15:45:54.764Z,9.00
2017-12-03T15:48:23.191Z,4.67
2017-12-03T15:50:51.499Z,9.93
2017-12-03T15:53:20.599Z,11.77
2017-12-03T15:55:49.678Z,12.60
2017-12-03T15:58:18.786Z,11.90
2017-12-03T16:00:48.101Z,13.53
2017-12-03T16:03:17.178Z,15.07
2017-12-03T16:05:46.273Z,17.93
2017-12-03T16:08:15.349Z,19.43
2017-12-03T16:10:43.672Z,18.67
2017-12-03T16:13:12.801Z,15.40
2017-12-03T16:15:41.132Z,16.10
2017-12-03T16:18:10.192Z,29.90
2017-12-03T16:20:38.507Z,16.80
2017-12-03T16:23:06.827Z,15.67
2017-12-03T16:25:35.959Z,12.70
2017-12-03T16:28:04.285Z,9.17
2017-12-03T16:30:32.600Z,11.53
2017-12-03T16:33:00.926Z,11.17
2017-12-03T16:35:29.955Z,12.43
2017-12-03T16:37:59.036Z,12.93
2017-12-03T16:40:28.112Z,8.90
2017-12-03T16:42:56.688Z,6.97
2017-12-03T16:45:25.042Z,8.27
2017-12-03T16:47:53.371Z,19.40
2017-12-03T16:50:23.222Z,9.97
2017-12-03T16:52:52.328Z,8.60
2017-12-03T16:55:20.644Z,7.90
2017-12-03T16:57:49.062Z,6.33
2017-12-03T17:00:17.375Z,5.60
2017-12-03T17:02:45.673Z,5.07
2017-12-03T17:05:13.987Z,4.87
2017-12-03T17:07:42.297Z,3.40
2017-12-03T17:10:10.645Z,5.60
2017-12-03T17:12:38.972Z,6.93
2017-12-03T17:15:08.063Z,8.20
2017-12-03T17:17:37.184Z,10.60
2017-12-03T17:20:05.525Z,3.30
2017-12-03T17:22:33.880Z,2.60
2017-12-03T17:25:02.177Z,7.80
2017-12-03T17:27:30.517Z,3.03
2017-12-03T17:29:58.823Z,3.30
2017-12-03T17:32:27.190Z,4.63
2017-12-03T17:34:55.507Z,7.00
2017-12-03T17:37:24.573Z,3.20
2017-12-03T17:39:52.889Z,2.50
2017-12-03T17:42:21.984Z,2.90
2017-12-03T17:44:51.801Z,2.80
2017-12-03T17:47:20.143Z,4.47
2017-12-03T17:49:48.465Z,2.97
2017-12-03T17:52:17.709Z,3.50
2017-12-03T17:54:46.054Z,3.60
2017-12-03T17:57:15.149Z,2.73
2017-12-03T17:59:44.287Z,3.67
2017-12-03T18:02:12.603Z,4.23
2017-12-03T18:04:40.936Z,4.83
2017-12-03T18:07:09.253Z,5.80
2017-12-03T18:09:37.583Z,3.77
2017-12-03T18:12:05.891Z,4.33
2017-12-03T18:14:34.191Z,4.20
2017-12-03T18:17:02.602Z,3.70
2017-12-03T18:19:30.942Z,5.73
2017-12-03T18:21:59.260Z,4.20
2017-12-03T18:24:27.560Z,4.10
2017-12-03T18:26:55.863Z,4.67
2017-12-03T18:29:24.195Z,4.70
2017-12-03T18:31:52.498Z,7.87
2017-12-03T18:34:20.851Z,6.60
2017-12-03T18:36:49.171Z,6.17
2017-12-03T18:39:17.511Z,6.50
2017-12-03T18:41:45.848Z,6.07
2017-12-03T18:44:14.202Z,9.37
2017-12-03T18:46:42.535Z,6.13
2017-12-03T18:49:10.822Z,6.63
2017-12-03T18:51:39.153Z,5.00
2017-12-03T18:54:07.473Z,6.20
2017-12-03T18:56:35.995Z,5.30
2017-12-03T18:59:04.309Z,6.53
2017-12-03T19:01:32.652Z,6.27
2017-12-03T19:04:00.971Z,4.23
2017-12-03T19:06:30.059Z,4.90
2017-12-03T19:08:58.385Z,5.47
2017-12-03T19:11:26.713Z,6.00
2017-12-03T19:13:55.177Z,5.77
2017-12-03T19:16:23.529Z,8.17
2017-12-03T19:18:51.857Z,10.50
2017-12-03T19:21:20.167Z,7.50
2017-12-03T19:23:49.280Z,7.40
2017-12-03T19:26:18.540Z,5.00
2017-12-03T19:28:47.138Z,5.33
2017-12-03T19:31:15.479Z,4.80
2017-12-03T19:33:43.850Z,5.00
2017-12-03T19:36:12.153Z,5.70
2017-12-03T19:38:40.626Z,4.03
2017-12-03T19:41:08.956Z,5.20
2017-12-03T19:43:37.296Z,6.47
2017-12-03T19:46:05.583Z,6.37
2017-12-03T19:48:33.911Z,6.20
2017-12-03T19:51:02.976Z,6.57
2017-12-03T19:53:32.395Z,6.27
2017-12-03T19:56:01.517Z,6.40
2017-12-03T19:58:29.832Z,3.97
2017-12-03T20:00:59.123Z,4.37
2017-12-03T20:03:27.438Z,5.27
2017-12-03T20:05:56.021Z,6.10
2017-12-03T20:08:24.366Z,14.57
2017-12-03T20:10:52.683Z,13.90
2017-12-03T20:13:21.011Z,9.67
2017-12-03T20:15:49.460Z,7.93
2017-12-03T20:18:19.982Z,5.30
2017-12-03T20:20:48.817Z,5.20
2017-12-03T20:23:17.886Z,5.53
2017-12-03T20:25:46.244Z,4.93
2017-12-03T20:28:14.551Z,5.63
2017-12-03T20:30:42.853Z,4.40
2017-12-03T20:33:11.910Z,4.77
2017-12-03T20:35:40.229Z,3.90
2017-12-03T20:38:09.322Z,5.27
2017-12-03T20:40:38.396Z,5.03
2017-12-03T20:43:07.462Z,3.93
2017-12-03T20:45:35.794Z,4.17
2017-12-03T20:48:04.117Z,5.57
2017-12-03T20:50:32.469Z,4.77
2017-12-03T20:53:01.561Z,4.10
2017-12-03T20:55:30.670Z,4.10
2017-12-03T20:57:59.905Z,3.93
2017-12-03T21:00:28.295Z,4.67
2017-12-03T21:02:56.609Z,6.40
2017-12-03T21:05:24.933Z,13.17
2017-12-03T21:07:53.233Z,10.40
2017-12-03T21:10:21.554Z,13.10
2017-12-03T21:12:49.865Z,14.63
2017-12-03T21:15:18.989Z,14.40
2017-12-03T21:17:47.318Z,12.50
2017-12-03T21:20:17.176Z,8.17
2017-12-03T21:22:45.655Z,8.23
2017-12-03T21:25:13.948Z,8.43
2017-12-03T21:27:42.324Z,6.30
2017-12-03T21:30:10.645Z,5.93
2017-12-03T21:32:38.958Z,4.90
2017-12-03T21:35:08.066Z,5.20
2017-12-03T21:37:37.157Z,5.63
2017-12-03T21:40:06.300Z,5.77
2017-12-03T21:42:34.603Z,5.97
2017-12-03T21:45:02.934Z,6.00
2017-12-03T21:47:31.232Z,6.03
2017-12-03T21:49:59.526Z,7.63
2017-12-03T21:52:27.832Z,6.43
2017-12-03T21:54:56.144Z,5.60
2017-12-03T21:57:25.222Z,5.50
2017-12-03T21:59:54.276Z,5.53
2017-12-03T22:02:22.600Z,5.17
2017-12-03T22:04:51.710Z,5.20
2017-12-03T22:07:20.795Z,6.17
2017-12-03T22:09:49.092Z,5.93
2017-12-03T22:12:18.195Z,5.10
2017-12-03T22:14:47.280Z,7.10
2017-12-03T22:17:16.356Z,5.70
2017-12-03T22:19:45.448Z,8.13
2017-12-03T22:22:13.758Z,6.20
2017-12-03T22:24:42.100Z,6.90
2017-12-03T22:27:10.523Z,6.57
2017-12-03T22:29:38.843Z,7.20
2017-12-03T22:32:07.154Z,7.30
2017-12-03T22:34:35.530Z,6.70
2017-12-03T22:37:03.863Z,6.33
2017-12-03T22:39:32.948Z,6.53
2017-12-03T22:42:01.518Z,5.80
2017-12-03T22:44:29.833Z,5.90
2017-12-03T22:46:58.890Z,5.77
2017-12-03T22:49:27.202Z,4.87
2017-12-03T22:51:56.296Z,5.00
2017-12-03T22:54:25.414Z,5.93
2017-12-03T22:56:53.732Z,6.07
2017-12-03T22:59:22.055Z,5.57
2017-12-03T23:01:51.146Z,7.07
2017-12-03T23:04:19.466Z,6.90
2017-12-03T23:06:47.768Z,5.33
2017-12-03T23:09:16.074Z,5.00
2017-12-03T23:11:44.420Z,6.97
2017-12-03T23:14:12.736Z,5.50
2017-12-03T23:16:41.046Z,5.57
2017-12-03T23:19:10.120Z,5.67
2017-12-03T23:21:38.427Z,5.20
2017-12-03T23:24:07.505Z,5.63
2017-12-03T23:26:36.594Z,6.30
2017-12-03T23:29:04.926Z,5.67
2017-12-03T23:31:33.256Z,6.40
2017-12-03T23:34:02.328Z,5.33
2017-12-03T23:36:30.636Z,6.30
2017-12-03T23:38:58.948Z,4.43
2017-12-03T23:41:28.016Z,3.77
2017-12-03T23:43:56.340Z,3.07
2017-12-03T23:46:24.664Z,3.07
2017-12-03T23:48:52.984Z,3.60
2017-12-03T23:51:22.053Z,3.97
2017-12-03T23:53:50.425Z,4.93
2017-12-03T23:56:18.766Z,4.87
2017-12-03T23:58:47.084Z,4.97
